sensor_id;sensor_type;location;lat;lon;timestamp;P1;durP1;ratioP1;P2;durP2;ratioP2
16662;SDS011;8445;51.270;9.434;2023-07-24T00:00:19;10.45;;;9.88;;
16662;SDS011;8445;51.270;9.434;2023-07-24T00:02:44;10.07;;;9.48;;
16662;SDS011;8445;51.270;9.434;2023-07-24T00:05:10;10.77;;;10.18;;
16662;SDS011;8445;51.270;9.434;2023-07-24T00:07:36;10.43;;;9.82;;
16662;SDS011;8445;51.270;9.434;2023-07-24T00:10:01;10.63;;;10.02;;
16662;SDS011;8445;51.270;9.434;2023-07-24T00:12:28;11.00;;;10.30;;
16662;SDS011;8445;51.270;9.434;2023-07-24T00:14:56;11.18;;;10.45;;
16662;SDS011;8445;51.270;9.434;2023-07-24T00:17:21;12.80;;;11.85;;
16662;SDS011;8445;51.270;9.434;2023-07-24T00:19:47;11.90;;;10.88;;
16662;SDS011;8445;51.270;9.434;2023-07-24T00:22:13;12.25;;;11.48;;
16662;SDS011;8445;51.270;9.434;2023-07-24T00:24:38;11.80;;;11.00;;
16662;SDS011;8445;51.270;9.434;2023-07-24T00:27:04;11.10;;;10.30;;
16662;SDS011;8445;51.270;9.434;2023-07-24T00:29:30;10.82;;;10.13;;
16662;SDS011;8445;51.270;9.434;2023-07-24T00:31:55;11.27;;;10.57;;
16662;SDS011;8445;51.270;9.434;2023-07-24T00:34:21;10.82;;;10.07;;
16662;SDS011;8445;51.270;9.434;2023-07-24T00:36:46;11.10;;;10.30;;
16662;SDS011;8445;51.270;9.434;2023-07-24T00:39:14;10.70;;;9.90;;
16662;SDS011;8445;51.270;9.434;2023-07-24T00:41:40;10.40;;;9.80;;
16662;SDS011;8445;51.270;9.434;2023-07-24T00:44:05;11.15;;;10.35;;
16662;SDS011;8445;51.270;9.434;2023-07-24T00:46:31;11.18;;;10.38;;
16662;SDS011;8445;51.270;9.434;2023-07-24T00:48:58;10.95;;;10.15;;
16662;SDS011;8445;51.270;9.434;2023-07-24T00:51:27;11.27;;;10.48;;
16662;SDS011;8445;51.270;9.434;2023-07-24T00:53:56;11.63;;;10.90;;
16662;SDS011;8445;51.270;9.434;2023-07-24T00:56:22;11.70;;;10.95;;
16662;SDS011;8445;51.270;9.434;2023-07-24T00:58:48;11.55;;;10.70;;
16662;SDS011;8445;51.270;9.434;2023-07-24T01:01:16;12.23;;;11.18;;
16662;SDS011;8445;51.270;9.434;2023-07-24T01:03:43;12.05;;;11.25;;
16662;SDS011;8445;51.270;9.434;2023-07-24T01:06:09;12.27;;;11.43;;
16662;SDS011;8445;51.270;9.434;2023-07-24T01:08:36;12.02;;;11.20;;
16662;SDS011;8445;51.270;9.434;2023-07-24T01:11:36;11.88;;;11.05;;
16662;SDS011;8445;51.270;9.434;2023-07-24T01:14:07;15.00;;;11.73;;
16662;SDS011;8445;51.270;9.434;2023-07-24T01:16:40;11.98;;;11.27;;
16662;SDS011;8445;51.270;9.434;2023-07-24T01:19:20;12.32;;;11.25;;
16662;SDS011;8445;51.270;9.434;2023-07-24T01:27:45;13.93;;;11.80;;
16662;SDS011;8445;51.270;9.434;2023-07-24T01:30:12;14.82;;;12.30;;
16662;SDS011;8445;51.270;9.434;2023-07-24T01:32:39;13.23;;;12.02;;
16662;SDS011;8445;51.270;9.434;2023-07-24T01:35:05;12.55;;;11.63;;
16662;SDS011;8445;51.270;9.434;2023-07-24T01:37:31;12.73;;;11.57;;
16662;SDS011;8445;51.270;9.434;2023-07-24T01:39:59;14.10;;;11.85;;
16662;SDS011;8445;51.270;9.434;2023-07-24T01:42:25;12.82;;;11.57;;
16662;SDS011;8445;51.270;9.434;2023-07-24T01:44:52;14.57;;;12.50;;
16662;SDS011;8445;51.270;9.434;2023-07-24T01:47:19;13.20;;;11.98;;
16662;SDS011;8445;51.270;9.434;2023-07-24T01:49:44;13.40;;;12.00;;
16662;SDS011;8445;51.270;9.434;2023-07-24T01:52:10;14.23;;;12.40;;
16662;SDS011;8445;51.270;9.434;2023-07-24T01:54:36;14.48;;;12.80;;
16662;SDS011;8445;51.270;9.434;2023-07-24T01:57:01;14.15;;;12.70;;
16662;SDS011;8445;51.270;9.434;2023-07-24T01:59:27;13.32;;;12.10;;
16662;SDS011;8445;51.270;9.434;2023-07-24T02:01:53;12.63;;;11.60;;
16662;SDS011;8445;51.270;9.434;2023-07-24T02:04:18;13.82;;;11.88;;
16662;SDS011;8445;51.270;9.434;2023-07-24T02:06:48;12.95;;;11.75;;
16662;SDS011;8445;51.270;9.434;2023-07-24T02:09:14;12.43;;;11.27;;
16662;SDS011;8445;51.270;9.434;2023-07-24T02:11:40;11.45;;;10.57;;
16662;SDS011;8445;51.270;9.434;2023-07-24T02:14:06;11.20;;;10.25;;
16662;SDS011;8445;51.270;9.434;2023-07-24T02:16:32;11.27;;;10.35;;
16662;SDS011;8445;51.270;9.434;2023-07-24T02:18:58;11.35;;;10.45;;
16662;SDS011;8445;51.270;9.434;2023-07-24T02:21:23;11.57;;;10.73;;
16662;SDS011;8445;51.270;9.434;2023-07-24T02:23:49;12.32;;;11.30;;
16662;SDS011;8445;51.270;9.434;2023-07-24T02:26:14;13.30;;;11.25;;
16662;SDS011;8445;51.270;9.434;2023-07-24T02:28:40;11.32;;;10.60;;
16662;SDS011;8445;51.270;9.434;2023-07-24T02:31:05;13.10;;;12.00;;
16662;SDS011;8445;51.270;9.434;2023-07-24T02:33:31;12.07;;;10.95;;
16662;SDS011;8445;51.270;9.434;2023-07-24T02:35:56;12.40;;;11.60;;
16662;SDS011;8445;51.270;9.434;2023-07-24T02:38:22;12.20;;;11.38;;
16662;SDS011;8445;51.270;9.434;2023-07-24T02:40:47;11.95;;;11.25;;
16662;SDS011;8445;51.270;9.434;2023-07-24T02:43:14;12.73;;;11.73;;
16662;SDS011;8445;51.270;9.434;2023-07-24T02:45:40;11.38;;;10.70;;
16662;SDS011;8445;51.270;9.434;2023-07-24T02:48:05;12.02;;;11.23;;
16662;SDS011;8445;51.270;9.434;2023-07-24T02:50:32;11.90;;;11.10;;
16662;SDS011;8445;51.270;9.434;2023-07-24T02:52:58;12.15;;;11.45;;
16662;SDS011;8445;51.270;9.434;2023-07-24T02:55:23;11.50;;;10.82;;
16662;SDS011;8445;51.270;9.434;2023-07-24T02:57:49;11.65;;;10.85;;
16662;SDS011;8445;51.270;9.434;2023-07-24T03:00:15;11.60;;;10.90;;
16662;SDS011;8445;51.270;9.434;2023-07-24T03:02:40;12.93;;;12.02;;
16662;SDS011;8445;51.270;9.434;2023-07-24T03:05:06;11.90;;;11.15;;
16662;SDS011;8445;51.270;9.434;2023-07-24T03:07:32;13.05;;;12.02;;
16662;SDS011;8445;51.270;9.434;2023-07-24T03:09:58;11.98;;;11.27;;
16662;SDS011;8445;51.270;9.434;2023-07-24T03:12:24;12.65;;;11.85;;
16662;SDS011;8445;51.270;9.434;2023-07-24T03:14:50;12.68;;;11.88;;
16662;SDS011;8445;51.270;9.434;2023-07-24T03:17:16;12.38;;;11.52;;
16662;SDS011;8445;51.270;9.434;2023-07-24T03:19:41;13.52;;;12.43;;
16662;SDS011;8445;51.270;9.434;2023-07-24T03:22:07;12.00;;;11.30;;
16662;SDS011;8445;51.270;9.434;2023-07-24T03:24:32;12.38;;;11.57;;
16662;SDS011;8445;51.270;9.434;2023-07-24T03:26:58;12.63;;;11.65;;
16662;SDS011;8445;51.270;9.434;2023-07-24T03:29:25;11.98;;;11.18;;
16662;SDS011;8445;51.270;9.434;2023-07-24T03:31:51;11.93;;;11.20;;
16662;SDS011;8445;51.270;9.434;2023-07-24T03:34:17;11.90;;;11.20;;
16662;SDS011;8445;51.270;9.434;2023-07-24T03:36:42;11.95;;;11.18;;
16662;SDS011;8445;51.270;9.434;2023-07-24T03:39:11;11.32;;;10.63;;
16662;SDS011;8445;51.270;9.434;2023-07-24T03:41:38;11.07;;;10.15;;
16662;SDS011;8445;51.270;9.434;2023-07-24T03:44:04;11.75;;;10.98;;
16662;SDS011;8445;51.270;9.434;2023-07-24T03:46:31;12.27;;;11.43;;
16662;SDS011;8445;51.270;9.434;2023-07-24T03:48:57;11.82;;;11.02;;
16662;SDS011;8445;51.270;9.434;2023-07-24T03:51:23;11.63;;;10.90;;
16662;SDS011;8445;51.270;9.434;2023-07-24T03:53:48;11.73;;;10.93;;
16662;SDS011;8445;51.270;9.434;2023-07-24T03:56:14;11.10;;;10.27;;
16662;SDS011;8445;51.270;9.434;2023-07-24T03:58:39;11.15;;;10.45;;
16662;SDS011;8445;51.270;9.434;2023-07-24T04:01:05;11.93;;;10.85;;
16662;SDS011;8445;51.270;9.434;2023-07-24T04:03:31;10.68;;;9.98;;
16662;SDS011;8445;51.270;9.434;2023-07-24T04:05:57;11.20;;;10.32;;
16662;SDS011;8445;51.270;9.434;2023-07-24T04:08:22;9.30;;;8.70;;
16662;SDS011;8445;51.270;9.434;2023-07-24T04:10:48;10.10;;;9.27;;
16662;SDS011;8445;51.270;9.434;2023-07-24T04:13:13;9.30;;;8.80;;
16662;SDS011;8445;51.270;9.434;2023-07-24T04:15:39;8.88;;;8.23;;
16662;SDS011;8445;51.270;9.434;2023-07-24T04:18:04;9.02;;;8.27;;
16662;SDS011;8445;51.270;9.434;2023-07-24T04:20:30;9.18;;;8.57;;
16662;SDS011;8445;51.270;9.434;2023-07-24T04:22:56;8.88;;;8.27;;
16662;SDS011;8445;51.270;9.434;2023-07-24T04:25:21;8.95;;;8.38;;
16662;SDS011;8445;51.270;9.434;2023-07-24T04:27:47;9.05;;;8.30;;
16662;SDS011;8445;51.270;9.434;2023-07-24T04:30:12;9.02;;;8.43;;
16662;SDS011;8445;51.270;9.434;2023-07-24T04:32:38;9.43;;;8.70;;
16662;SDS011;8445;51.270;9.434;2023-07-24T04:35:03;10.13;;;9.43;;
16662;SDS011;8445;51.270;9.434;2023-07-24T04:37:29;9.35;;;8.75;;
16662;SDS011;8445;51.270;9.434;2023-07-24T04:39:55;9.40;;;8.80;;
16662;SDS011;8445;51.270;9.434;2023-07-24T04:42:20;9.32;;;8.73;;
16662;SDS011;8445;51.270;9.434;2023-07-24T04:44:45;8.90;;;8.40;;
16662;SDS011;8445;51.270;9.434;2023-07-24T04:47:11;9.57;;;8.73;;
16662;SDS011;8445;51.270;9.434;2023-07-24T04:49:37;9.27;;;8.45;;
16662;SDS011;8445;51.270;9.434;2023-07-24T04:52:02;9.02;;;8.40;;
16662;SDS011;8445;51.270;9.434;2023-07-24T04:54:28;8.82;;;8.18;;
16662;SDS011;8445;51.270;9.434;2023-07-24T04:56:54;9.27;;;8.52;;
16662;SDS011;8445;51.270;9.434;2023-07-24T04:59:19;9.20;;;8.70;;
16662;SDS011;8445;51.270;9.434;2023-07-24T05:01:45;10.07;;;9.10;;
16662;SDS011;8445;51.270;9.434;2023-07-24T05:04:10;9.73;;;8.90;;
16662;SDS011;8445;51.270;9.434;2023-07-24T05:06:36;9.23;;;8.57;;
16662;SDS011;8445;51.270;9.434;2023-07-24T05:09:03;9.65;;;8.95;;
16662;SDS011;8445;51.270;9.434;2023-07-24T05:11:29;9.38;;;8.57;;
16662;SDS011;8445;51.270;9.434;2023-07-24T05:13:54;8.40;;;7.63;;
16662;SDS011;8445;51.270;9.434;2023-07-24T05:16:22;8.30;;;7.60;;
16662;SDS011;8445;51.270;9.434;2023-07-24T05:18:47;8.63;;;8.18;;
16662;SDS011;8445;51.270;9.434;2023-07-24T05:21:13;8.75;;;8.23;;
16662;SDS011;8445;51.270;9.434;2023-07-24T05:23:38;8.60;;;7.88;;
16662;SDS011;8445;51.270;9.434;2023-07-24T05:26:04;8.43;;;7.93;;
16662;SDS011;8445;51.270;9.434;2023-07-24T05:28:30;9.20;;;8.55;;
16662;SDS011;8445;51.270;9.434;2023-07-24T05:31:01;8.70;;;8.00;;
16662;SDS011;8445;51.270;9.434;2023-07-24T05:33:33;8.75;;;8.10;;
16662;SDS011;8445;51.270;9.434;2023-07-24T05:35:58;8.68;;;7.78;;
16662;SDS011;8445;51.270;9.434;2023-07-24T05:38:28;7.75;;;7.15;;
16662;SDS011;8445;51.270;9.434;2023-07-24T05:40:57;8.00;;;7.20;;
16662;SDS011;8445;51.270;9.434;2023-07-24T05:43:24;7.72;;;6.97;;
16662;SDS011;8445;51.270;9.434;2023-07-24T05:45:50;8.20;;;7.60;;
16662;SDS011;8445;51.270;9.434;2023-07-24T05:48:16;7.88;;;7.43;;
16662;SDS011;8445;51.270;9.434;2023-07-24T05:50:42;7.80;;;7.30;;
16662;SDS011;8445;51.270;9.434;2023-07-24T05:53:08;7.88;;;7.10;;
16662;SDS011;8445;51.270;9.434;2023-07-24T05:55:33;8.88;;;8.05;;
16662;SDS011;8445;51.270;9.434;2023-07-24T05:58:01;7.95;;;7.40;;
16662;SDS011;8445;51.270;9.434;2023-07-24T06:00:26;8.68;;;8.13;;
16662;SDS011;8445;51.270;9.434;2023-07-24T06:02:52;9.10;;;8.30;;
16662;SDS011;8445;51.270;9.434;2023-07-24T06:05:18;8.30;;;7.80;;
16662;SDS011;8445;51.270;9.434;2023-07-24T06:07:45;8.55;;;7.75;;
16662;SDS011;8445;51.270;9.434;2023-07-24T06:10:13;7.72;;;7.32;;
16662;SDS011;8445;51.270;9.434;2023-07-24T06:12:39;8.98;;;8.40;;
16662;SDS011;8445;51.270;9.434;2023-07-24T06:15:05;9.13;;;8.43;;
16662;SDS011;8445;51.270;9.434;2023-07-24T06:17:31;9.05;;;8.35;;
16662;SDS011;8445;51.270;9.434;2023-07-24T06:19:57;9.57;;;8.85;;
16662;SDS011;8445;51.270;9.434;2023-07-24T06:22:23;9.02;;;8.40;;
16662;SDS011;8445;51.270;9.434;2023-07-24T06:24:48;8.77;;;8.10;;
16662;SDS011;8445;51.270;9.434;2023-07-24T06:27:16;9.52;;;8.65;;
16662;SDS011;8445;51.270;9.434;2023-07-24T06:29:42;9.30;;;8.60;;
16662;SDS011;8445;51.270;9.434;2023-07-24T06:32:08;9.77;;;8.80;;
16662;SDS011;8445;51.270;9.434;2023-07-24T06:34:33;9.63;;;8.85;;
16662;SDS011;8445;51.270;9.434;2023-07-24T06:36:59;9.90;;;9.30;;
16662;SDS011;8445;51.270;9.434;2023-07-24T06:39:25;9.18;;;8.65;;
16662;SDS011;8445;51.270;9.434;2023-07-24T06:41:51;10.30;;;8.65;;
16662;SDS011;8445;51.270;9.434;2023-07-24T06:44:17;9.02;;;8.52;;
16662;SDS011;8445;51.270;9.434;2023-07-24T06:46:43;9.30;;;8.60;;
16662;SDS011;8445;51.270;9.434;2023-07-24T06:49:08;10.02;;;9.30;;
16662;SDS011;8445;51.270;9.434;2023-07-24T06:51:35;9.30;;;8.80;;
16662;SDS011;8445;51.270;9.434;2023-07-24T06:54:00;9.38;;;8.77;;
16662;SDS011;8445;51.270;9.434;2023-07-24T06:56:29;9.85;;;9.23;;
16662;SDS011;8445;51.270;9.434;2023-07-24T06:58:54;9.32;;;8.60;;
16662;SDS011;8445;51.270;9.434;2023-07-24T07:01:20;9.70;;;9.00;;
16662;SDS011;8445;51.270;9.434;2023-07-24T07:03:45;9.98;;;9.05;;
16662;SDS011;8445;51.270;9.434;2023-07-24T07:06:13;10.40;;;9.48;;
16662;SDS011;8445;51.270;9.434;2023-07-24T07:08:38;10.30;;;9.60;;
16662;SDS011;8445;51.270;9.434;2023-07-24T07:11:04;10.05;;;9.10;;
16662;SDS011;8445;51.270;9.434;2023-07-24T07:13:29;9.93;;;9.32;;
16662;SDS011;8445;51.270;9.434;2023-07-24T07:15:55;9.10;;;8.40;;
16662;SDS011;8445;51.270;9.434;2023-07-24T07:18:23;9.90;;;9.27;;
16662;SDS011;8445;51.270;9.434;2023-07-24T07:20:52;10.32;;;9.43;;
16662;SDS011;8445;51.270;9.434;2023-07-24T07:23:19;10.10;;;9.50;;
16662;SDS011;8445;51.270;9.434;2023-07-24T07:25:45;10.13;;;9.43;;
16662;SDS011;8445;51.270;9.434;2023-07-24T07:28:11;10.70;;;9.85;;
16662;SDS011;8445;51.270;9.434;2023-07-24T07:30:41;10.63;;;9.93;;
16662;SDS011;8445;51.270;9.434;2023-07-24T07:33:07;10.70;;;10.00;;
16662;SDS011;8445;51.270;9.434;2023-07-24T07:35:34;10.63;;;9.80;;
16662;SDS011;8445;51.270;9.434;2023-07-24T07:38:01;10.85;;;9.95;;
16662;SDS011;8445;51.270;9.434;2023-07-24T07:40:27;10.85;;;9.98;;
16662;SDS011;8445;51.270;9.434;2023-07-24T07:42:53;11.30;;;10.50;;
16662;SDS011;8445;51.270;9.434;2023-07-24T07:45:19;11.65;;;10.35;;
16662;SDS011;8445;51.270;9.434;2023-07-24T07:47:45;10.65;;;9.95;;
16662;SDS011;8445;51.270;9.434;2023-07-24T07:50:13;11.30;;;10.60;;
16662;SDS011;8445;51.270;9.434;2023-07-24T07:52:38;10.88;;;10.07;;
16662;SDS011;8445;51.270;9.434;2023-07-24T07:55:04;11.05;;;10.27;;
16662;SDS011;8445;51.270;9.434;2023-07-24T07:57:37;10.00;;;9.20;;
16662;SDS011;8445;51.270;9.434;2023-07-24T08:00:05;10.07;;;9.38;;
16662;SDS011;8445;51.270;9.434;2023-07-24T08:02:31;14.27;;;13.18;;
16662;SDS011;8445;51.270;9.434;2023-07-24T08:04:57;10.90;;;10.00;;
16662;SDS011;8445;51.270;9.434;2023-07-24T08:07:23;10.65;;;9.75;;
16662;SDS011;8445;51.270;9.434;2023-07-24T08:09:51;10.80;;;10.00;;
16662;SDS011;8445;51.270;9.434;2023-07-24T08:12:16;12.35;;;11.05;;
16662;SDS011;8445;51.270;9.434;2023-07-24T08:14:42;11.45;;;10.55;;
16662;SDS011;8445;51.270;9.434;2023-07-24T08:17:07;10.82;;;10.02;;
16662;SDS011;8445;51.270;9.434;2023-07-24T08:19:33;11.13;;;10.43;;
16662;SDS011;8445;51.270;9.434;2023-07-24T08:22:01;11.75;;;10.63;;
16662;SDS011;8445;51.270;9.434;2023-07-24T08:24:26;11.30;;;10.52;;
16662;SDS011;8445;51.270;9.434;2023-07-24T08:27:09;9.90;;;9.20;;
16662;SDS011;8445;51.270;9.434;2023-07-24T08:29:34;9.95;;;9.15;;
16662;SDS011;8445;51.270;9.434;2023-07-24T08:32:01;9.38;;;8.68;;
16662;SDS011;8445;51.270;9.434;2023-07-24T08:34:27;9.75;;;8.98;;
16662;SDS011;8445;51.270;9.434;2023-07-24T08:36:52;10.02;;;9.32;;
16662;SDS011;8445;51.270;9.434;2023-07-24T08:39:18;10.63;;;9.93;;
16662;SDS011;8445;51.270;9.434;2023-07-24T08:41:43;10.60;;;9.88;;
16662;SDS011;8445;51.270;9.434;2023-07-24T08:44:09;10.05;;;9.45;;
16662;SDS011;8445;51.270;9.434;2023-07-24T08:46:38;10.50;;;9.48;;
16662;SDS011;8445;51.270;9.434;2023-07-24T08:49:06;9.02;;;8.43;;
16662;SDS011;8445;51.270;9.434;2023-07-24T08:51:36;8.90;;;8.30;;
16662;SDS011;8445;51.270;9.434;2023-07-24T08:54:02;9.40;;;8.55;;
16662;SDS011;8445;51.270;9.434;2023-07-24T08:56:29;9.90;;;9.20;;
16662;SDS011;8445;51.270;9.434;2023-07-24T08:58:55;8.68;;;8.10;;
16662;SDS011;8445;51.270;9.434;2023-07-24T09:01:21;9.70;;;9.10;;
16662;SDS011;8445;51.270;9.434;2023-07-24T09:03:46;9.25;;;8.65;;
16662;SDS011;8445;51.270;9.434;2023-07-24T09:06:12;9.23;;;8.55;;
16662;SDS011;8445;51.270;9.434;2023-07-24T09:08:41;9.70;;;9.00;;
16662;SDS011;8445;51.270;9.434;2023-07-24T09:11:08;10.48;;;9.48;;
16662;SDS011;8445;51.270;9.434;2023-07-24T09:13:35;10.55;;;9.85;;
16662;SDS011;8445;51.270;9.434;2023-07-24T09:16:03;10.80;;;10.20;;
16662;SDS011;8445;51.270;9.434;2023-07-24T09:18:41;10.30;;;9.60;;
16662;SDS011;8445;51.270;9.434;2023-07-24T09:21:08;9.70;;;9.00;;
16662;SDS011;8445;51.270;9.434;2023-07-24T09:23:37;9.13;;;8.40;;
16662;SDS011;8445;51.270;9.434;2023-07-24T09:26:09;8.88;;;8.27;;
16662;SDS011;8445;51.270;9.434;2023-07-24T09:28:35;9.60;;;8.60;;
16662;SDS011;8445;51.270;9.434;2023-07-24T09:31:00;8.82;;;8.23;;
16662;SDS011;8445;51.270;9.434;2023-07-24T09:33:39;8.63;;;8.02;;
16662;SDS011;8445;51.270;9.434;2023-07-24T09:36:09;9.23;;;8.52;;
16662;SDS011;8445;51.270;9.434;2023-07-24T09:38:39;9.13;;;8.27;;
16662;SDS011;8445;51.270;9.434;2023-07-24T09:41:05;8.60;;;7.90;;
16662;SDS011;8445;51.270;9.434;2023-07-24T09:43:32;10.93;;;10.13;;
16662;SDS011;8445;51.270;9.434;2023-07-24T09:45:58;10.35;;;9.45;;
16662;SDS011;8445;51.270;9.434;2023-07-24T09:48:24;9.98;;;9.18;;
16662;SDS011;8445;51.270;9.434;2023-07-24T09:50:54;8.98;;;8.27;;
16662;SDS011;8445;51.270;9.434;2023-07-24T09:53:37;8.75;;;8.05;;
16662;SDS011;8445;51.270;9.434;2023-07-24T09:56:08;8.35;;;7.68;;
16662;SDS011;8445;51.270;9.434;2023-07-24T09:58:36;8.93;;;8.32;;
16662;SDS011;8445;51.270;9.434;2023-07-24T10:01:03;8.02;;;7.43;;
16662;SDS011;8445;51.270;9.434;2023-07-24T10:03:33;10.98;;;10.18;;
16662;SDS011;8445;51.270;9.434;2023-07-24T10:06:00;12.70;;;11.45;;
16662;SDS011;8445;51.270;9.434;2023-07-24T10:08:27;8.63;;;7.82;;
16662;SDS011;8445;51.270;9.434;2023-07-24T10:10:52;10.15;;;9.35;;
16662;SDS011;8445;51.270;9.434;2023-07-24T10:13:19;13.55;;;12.45;;
16662;SDS011;8445;51.270;9.434;2023-07-24T10:15:46;10.23;;;9.27;;
16662;SDS011;8445;51.270;9.434;2023-07-24T10:18:14;10.45;;;9.48;;
16662;SDS011;8445;51.270;9.434;2023-07-24T10:20:41;10.48;;;9.68;;
16662;SDS011;8445;51.270;9.434;2023-07-24T10:23:08;9.05;;;8.35;;
16662;SDS011;8445;51.270;9.434;2023-07-24T10:25:35;9.07;;;8.38;;
16662;SDS011;8445;51.270;9.434;2023-07-24T10:28:06;9.80;;;9.00;;
16662;SDS011;8445;51.270;9.434;2023-07-24T10:30:36;10.23;;;9.52;;
16662;SDS011;8445;51.270;9.434;2023-07-24T10:35:38;12.00;;;11.20;;
16662;SDS011;8445;51.270;9.434;2023-07-24T10:38:05;11.55;;;10.63;;
16662;SDS011;8445;51.270;9.434;2023-07-24T10:40:31;10.15;;;9.15;;
16662;SDS011;8445;51.270;9.434;2023-07-24T10:42:58;9.90;;;9.05;;
16662;SDS011;8445;51.270;9.434;2023-07-24T10:45:51;8.73;;;8.05;;
16662;SDS011;8445;51.270;9.434;2023-07-24T10:48:19;9.55;;;8.80;;
16662;SDS011;8445;51.270;9.434;2023-07-24T10:50:47;9.52;;;8.93;;
16662;SDS011;8445;51.270;9.434;2023-07-24T10:53:15;10.52;;;9.55;;
16662;SDS011;8445;51.270;9.434;2023-07-24T10:55:42;9.25;;;8.48;;
16662;SDS011;8445;51.270;9.434;2023-07-24T10:58:09;9.23;;;8.63;;
16662;SDS011;8445;51.270;9.434;2023-07-24T11:00:35;9.05;;;8.35;;
16662;SDS011;8445;51.270;9.434;2023-07-24T11:03:00;8.57;;;8.07;;
16662;SDS011;8445;51.270;9.434;2023-07-24T11:05:26;11.27;;;10.48;;
16662;SDS011;8445;51.270;9.434;2023-07-24T11:07:52;11.88;;;10.95;;
16662;SDS011;8445;51.270;9.434;2023-07-24T11:10:19;11.70;;;11.00;;
16662;SDS011;8445;51.270;9.434;2023-07-24T11:12:45;12.65;;;11.80;;
16662;SDS011;8445;51.270;9.434;2023-07-24T11:15:12;9.43;;;8.30;;
16662;SDS011;8445;51.270;9.434;2023-07-24T11:17:39;9.15;;;8.55;;
16662;SDS011;8445;51.270;9.434;2023-07-24T11:20:15;9.50;;;8.65;;
16662;SDS011;8445;51.270;9.434;2023-07-24T11:22:41;9.10;;;8.50;;
16662;SDS011;8445;51.270;9.434;2023-07-24T11:25:11;9.32;;;8.73;;
16662;SDS011;8445;51.270;9.434;2023-07-24T11:27:37;12.23;;;10.63;;
16662;SDS011;8445;51.270;9.434;2023-07-24T11:30:07;11.10;;;9.98;;
16662;SDS011;8445;51.270;9.434;2023-07-24T11:32:33;11.07;;;10.32;;
16662;SDS011;8445;51.270;9.434;2023-07-24T11:34:59;9.48;;;8.77;;
16662;SDS011;8445;51.270;9.434;2023-07-24T11:37:25;10.85;;;10.13;;
16662;SDS011;8445;51.270;9.434;2023-07-24T11:39:58;11.40;;;10.60;;
16662;SDS011;8445;51.270;9.434;2023-07-24T11:42:25;9.18;;;8.68;;
16662;SDS011;8445;51.270;9.434;2023-07-24T11:44:52;9.05;;;8.45;;
16662;SDS011;8445;51.270;9.434;2023-07-24T11:47:18;7.97;;;7.38;;
16662;SDS011;8445;51.270;9.434;2023-07-24T11:49:43;10.23;;;9.15;;
16662;SDS011;8445;51.270;9.434;2023-07-24T11:52:13;9.13;;;8.48;;
16662;SDS011;8445;51.270;9.434;2023-07-24T11:54:39;8.05;;;7.55;;
16662;SDS011;8445;51.270;9.434;2023-07-24T11:57:17;10.57;;;9.48;;
16662;SDS011;8445;51.270;9.434;2023-07-24T11:59:42;8.73;;;8.23;;
16662;SDS011;8445;51.270;9.434;2023-07-24T12:02:11;8.27;;;7.78;;
16662;SDS011;8445;51.270;9.434;2023-07-24T12:04:37;8.25;;;7.65;;
16662;SDS011;8445;51.270;9.434;2023-07-24T12:07:08;8.23;;;7.60;;
16662;SDS011;8445;51.270;9.434;2023-07-24T12:09:34;8.75;;;8.15;;
16662;SDS011;8445;51.270;9.434;2023-07-24T12:12:00;8.65;;;7.95;;
16662;SDS011;8445;51.270;9.434;2023-07-24T12:14:28;8.30;;;7.50;;
16662;SDS011;8445;51.270;9.434;2023-07-24T12:17:01;8.00;;;7.50;;
16662;SDS011;8445;51.270;9.434;2023-07-24T12:19:27;11.02;;;10.23;;
16662;SDS011;8445;51.270;9.434;2023-07-24T12:21:53;9.63;;;9.02;;
16662;SDS011;8445;51.270;9.434;2023-07-24T12:24:18;10.20;;;9.60;;
16662;SDS011;8445;51.270;9.434;2023-07-24T12:26:44;10.68;;;9.98;;
16662;SDS011;8445;51.270;9.434;2023-07-24T12:29:09;11.02;;;10.05;;
16662;SDS011;8445;51.270;9.434;2023-07-24T12:31:35;11.10;;;10.07;;
16662;SDS011;8445;51.270;9.434;2023-07-24T12:34:01;8.85;;;8.10;;
16662;SDS011;8445;51.270;9.434;2023-07-24T12:36:26;9.50;;;8.82;;
16662;SDS011;8445;51.270;9.434;2023-07-24T12:38:52;8.38;;;7.80;;
16662;SDS011;8445;51.270;9.434;2023-07-24T12:41:17;8.85;;;8.02;;
16662;SDS011;8445;51.270;9.434;2023-07-24T12:43:44;10.50;;;9.63;;
16662;SDS011;8445;51.270;9.434;2023-07-24T12:46:09;9.57;;;8.88;;
16662;SDS011;8445;51.270;9.434;2023-07-24T12:48:35;9.25;;;8.63;;
16662;SDS011;8445;51.270;9.434;2023-07-24T12:51:01;8.45;;;7.95;;
16662;SDS011;8445;51.270;9.434;2023-07-24T12:53:27;9.00;;;8.40;;
16662;SDS011;8445;51.270;9.434;2023-07-24T12:55:53;9.68;;;8.90;;
16662;SDS011;8445;51.270;9.434;2023-07-24T12:58:19;10.10;;;9.18;;
16662;SDS011;8445;51.270;9.434;2023-07-24T13:00:44;10.50;;;9.50;;
16662;SDS011;8445;51.270;9.434;2023-07-24T13:03:10;9.93;;;9.07;;
16662;SDS011;8445;51.270;9.434;2023-07-24T13:05:35;9.55;;;8.75;;
16662;SDS011;8445;51.270;9.434;2023-07-24T13:08:01;11.60;;;10.80;;
16662;SDS011;8445;51.270;9.434;2023-07-24T13:10:26;9.68;;;8.98;;
16662;SDS011;8445;51.270;9.434;2023-07-24T13:12:52;10.32;;;9.63;;
16662;SDS011;8445;51.270;9.434;2023-07-24T13:15:17;10.57;;;9.57;;
16662;SDS011;8445;51.270;9.434;2023-07-24T13:17:43;9.45;;;8.65;;
16662;SDS011;8445;51.270;9.434;2023-07-24T13:20:09;10.43;;;9.18;;
16662;SDS011;8445;51.270;9.434;2023-07-24T13:22:35;9.75;;;8.95;;
16662;SDS011;8445;51.270;9.434;2023-07-24T13:25:00;10.40;;;9.45;;
16662;SDS011;8445;51.270;9.434;2023-07-24T13:27:26;12.63;;;11.57;;
16662;SDS011;8445;51.270;9.434;2023-07-24T13:29:51;8.98;;;8.35;;
16662;SDS011;8445;51.270;9.434;2023-07-24T13:32:17;8.45;;;7.85;;
16662;SDS011;8445;51.270;9.434;2023-07-24T13:34:42;8.85;;;8.05;;
16662;SDS011;8445;51.270;9.434;2023-07-24T13:37:08;9.20;;;8.40;;
16662;SDS011;8445;51.270;9.434;2023-07-24T13:39:34;8.88;;;8.18;;
16662;SDS011;8445;51.270;9.434;2023-07-24T13:42:00;9.95;;;8.77;;
16662;SDS011;8445;51.270;9.434;2023-07-24T13:44:26;11.13;;;8.55;;
16662;SDS011;8445;51.270;9.434;2023-07-24T13:46:52;8.85;;;8.15;;
16662;SDS011;8445;51.270;9.434;2023-07-24T13:49:17;9.70;;;8.90;;
16662;SDS011;8445;51.270;9.434;2023-07-24T13:51:42;14.13;;;9.13;;
16662;SDS011;8445;51.270;9.434;2023-07-24T13:54:08;10.13;;;9.20;;
16662;SDS011;8445;51.270;9.434;2023-07-24T13:56:33;9.80;;;9.10;;
16662;SDS011;8445;51.270;9.434;2023-07-24T13:59:01;12.13;;;11.23;;
16662;SDS011;8445;51.270;9.434;2023-07-24T14:01:26;8.85;;;8.10;;
16662;SDS011;8445;51.270;9.434;2023-07-24T14:03:52;11.43;;;10.55;;
16662;SDS011;8445;51.270;9.434;2023-07-24T14:06:17;11.68;;;10.80;;
16662;SDS011;8445;51.270;9.434;2023-07-24T14:08:43;9.80;;;8.90;;
16662;SDS011;8445;51.270;9.434;2023-07-24T14:11:08;8.65;;;8.00;;
16662;SDS011;8445;51.270;9.434;2023-07-24T14:13:34;8.85;;;8.05;;
16662;SDS011;8445;51.270;9.434;2023-07-24T14:15:59;8.23;;;7.63;;
16662;SDS011;8445;51.270;9.434;2023-07-24T14:18:25;10.20;;;7.80;;
16662;SDS011;8445;51.270;9.434;2023-07-24T14:20:50;7.60;;;7.00;;
16662;SDS011;8445;51.270;9.434;2023-07-24T14:23:19;8.30;;;7.47;;
16662;SDS011;8445;51.270;9.434;2023-07-24T14:25:46;9.88;;;8.63;;
16662;SDS011;8445;51.270;9.434;2023-07-24T14:28:14;11.20;;;10.23;;
16662;SDS011;8445;51.270;9.434;2023-07-24T14:30:39;8.88;;;7.97;;
16662;SDS011;8445;51.270;9.434;2023-07-24T14:33:05;7.50;;;6.93;;
16662;SDS011;8445;51.270;9.434;2023-07-24T14:35:32;19.42;;;6.60;;
16662;SDS011;8445;51.270;9.434;2023-07-24T14:37:58;7.30;;;6.68;;
16662;SDS011;8445;51.270;9.434;2023-07-24T14:40:27;7.97;;;7.40;;
16662;SDS011;8445;51.270;9.434;2023-07-24T14:42:56;7.90;;;7.30;;
16662;SDS011;8445;51.270;9.434;2023-07-24T14:46:20;9.98;;;9.13;;
16662;SDS011;8445;51.270;9.434;2023-07-24T14:48:46;11.20;;;10.15;;
16662;SDS011;8445;51.270;9.434;2023-07-24T14:51:12;23.95;;;10.93;;
16662;SDS011;8445;51.270;9.434;2023-07-24T14:53:37;27.77;;;11.48;;